createdAt,value
2022-09-01T00:02:56.547Z,0.50
2022-09-01T00:06:19.430Z,0.68
2022-09-01T00:09:23.232Z,0.55
2022-09-01T00:12:26.825Z,0.70
2022-09-01T00:15:29.482Z,0.65
2022-09-01T00:18:32.762Z,0.67
2022-09-01T00:21:39.127Z,0.70
2022-09-01T00:24:42.206Z,0.68
2022-09-01T00:27:45.013Z,0.70
2022-09-01T00:34:41.434Z,0.53
2022-09-01T00:37:45.160Z,0.70
2022-09-01T00:40:47.884Z,0.60
2022-09-01T00:43:55.901Z,0.70
2022-09-01T00:46:58.750Z,0.65
2022-09-01T00:50:05.285Z,0.80
2022-09-01T00:53:08.555Z,0.40
2022-09-01T00:56:11.766Z,0.60
2022-09-01T00:59:17.079Z,0.60
2022-09-01T01:02:20.073Z,0.70
2022-09-01T01:05:34.963Z,0.97
2022-09-01T01:08:41.920Z,0.60
2022-09-01T01:11:47.568Z,1.10
2022-09-01T01:14:51.482Z,1.00
2022-09-01T01:17:55.624Z,0.80
2022-09-01T01:21:32.622Z,0.80
2022-09-01T01:24:35.443Z,0.88
2022-09-01T01:27:43.012Z,0.82
2022-09-01T01:30:52.495Z,0.95
2022-09-01T01:33:56.938Z,0.90
2022-09-01T01:37:00.002Z,0.70
2022-09-01T01:40:04.087Z,1.37
2022-09-01T01:43:07.801Z,0.82
2022-09-01T01:46:11.759Z,1.00
2022-09-01T01:49:19.640Z,0.93
2022-09-01T01:52:26.226Z,0.83
2022-09-01T01:55:31.475Z,0.80
2022-09-01T01:58:36.009Z,0.90
2022-09-01T02:01:43.017Z,0.65
2022-09-01T02:04:46.034Z,1.00
2022-09-01T02:07:50.173Z,0.70
2022-09-01T02:10:55.470Z,1.08
2022-09-01T02:13:58.427Z,0.80
2022-09-01T02:17:02.089Z,1.20
2022-09-01T02:20:05.139Z,0.70
2022-09-01T02:23:10.929Z,0.80
2022-09-01T02:26:17.838Z,1.25
2022-09-01T02:29:24.018Z,0.75
2022-09-01T02:32:26.683Z,0.70
2022-09-01T02:35:34.351Z,1.10
2022-09-01T02:38:41.683Z,1.10
2022-09-01T02:41:45.418Z,0.98
2022-09-01T02:44:48.181Z,1.00
2022-09-01T02:47:51.526Z,1.48
2022-09-01T02:50:56.921Z,1.10
2022-09-01T02:54:01.440Z,1.23
2022-09-01T02:57:04.236Z,0.95
2022-09-01T03:00:20.802Z,1.00
2022-09-01T03:03:24.845Z,0.88
2022-09-01T03:06:30.865Z,1.10
2022-09-01T03:09:35.170Z,0.83
2022-09-01T03:12:38.186Z,1.08
2022-09-01T03:15:41.764Z,0.80
2022-09-01T03:18:44.904Z,1.08
2022-09-01T03:21:48.803Z,0.85
2022-09-01T03:24:51.960Z,1.30
2022-09-01T03:27:54.897Z,1.10
2022-09-01T03:30:58.871Z,1.23
2022-09-01T03:34:03.415Z,1.20
2022-09-01T03:37:08.147Z,1.05
2022-09-01T03:40:13.386Z,1.10
2022-09-01T03:43:17.021Z,1.55
2022-09-01T03:46:21.612Z,1.15
2022-09-01T03:49:28.690Z,1.05
2022-09-01T03:52:31.324Z,0.93
2022-09-01T03:55:37.569Z,1.30
2022-09-01T03:58:44.162Z,1.30
2022-09-01T04:01:47.285Z,1.30
2022-09-01T04:04:50.757Z,1.17
2022-09-01T04:07:57.530Z,1.15
2022-09-01T04:11:10.144Z,1.53
2022-09-01T04:14:13.091Z,0.85
2022-09-01T04:17:34.997Z,1.10
2022-09-01T04:20:50.971Z,1.05
2022-09-01T04:23:54.508Z,1.30
2022-09-01T04:27:00.162Z,1.27
2022-09-01T04:30:03.837Z,1.23
2022-09-01T04:33:08.074Z,1.33
2022-09-01T04:36:22.406Z,1.52
2022-09-01T04:39:25.571Z,1.25
2022-09-01T04:42:32.541Z,1.27
2022-09-01T04:45:37.051Z,1.20
2022-09-01T04:48:43.239Z,1.30
2022-09-01T04:51:53.992Z,1.40
2022-09-01T04:54:58.192Z,1.30
2022-09-01T04:58:08.312Z,1.30
2022-09-01T05:01:16.253Z,1.40
2022-09-01T05:04:31.663Z,1.00
2022-09-01T05:07:38.068Z,1.20
2022-09-01T05:10:43.260Z,1.23
2022-09-01T05:13:51.207Z,1.00
2022-09-01T05:16:58.956Z,1.10
2022-09-01T05:20:02.042Z,1.60
2022-09-01T05:23:05.121Z,1.30
2022-09-01T05:26:20.003Z,0.90
2022-09-01T05:29:24.422Z,1.20
2022-09-01T05:32:29.172Z,1.20
2022-09-01T05:35:32.814Z,1.20
2022-09-01T05:38:36.756Z,1.33
2022-09-01T05:41:40.949Z,1.10
2022-09-01T05:44:45.105Z,0.90
2022-09-01T05:47:48.954Z,1.50
2022-09-01T05:50:56.286Z,0.90
2022-09-01T05:53:59.357Z,0.93
2022-09-01T05:57:23.241Z,0.90
2022-09-01T06:00:34.792Z,0.97
2022-09-01T06:03:38.346Z,1.25
2022-09-01T06:07:06.486Z,0.90
2022-09-01T06:10:11.157Z,1.20
2022-09-01T06:13:17.062Z,1.10
2022-09-01T06:16:20.162Z,1.37
2022-09-01T06:19:22.929Z,1.23
2022-09-01T06:22:28.156Z,1.10
2022-09-01T06:25:31.348Z,1.12
2022-09-01T06:28:34.342Z,1.08
2022-09-01T06:31:39.507Z,1.20
2022-09-01T06:34:50.444Z,2.05
2022-09-01T06:37:53.258Z,1.00
2022-09-01T06:41:04.280Z,1.00
2022-09-01T06:44:12.395Z,1.30
2022-09-01T06:47:19.880Z,1.03
2022-09-01T06:53:51.455Z,0.90
2022-09-01T07:00:32.319Z,1.00
2022-09-01T07:03:36.476Z,1.30
2022-09-01T07:13:28.503Z,1.30
2022-09-01T07:16:51.053Z,1.30
2022-09-01T07:19:56.166Z,1.10
2022-09-01T07:23:04.488Z,1.08
2022-09-01T07:26:08.479Z,0.75
2022-09-01T07:29:11.893Z,1.15
2022-09-01T07:36:25.688Z,1.10
2022-09-01T07:46:00.424Z,1.10
2022-09-01T07:49:29.474Z,1.10
2022-09-01T07:52:27.446Z,1.20
2022-09-01T07:55:32.006Z,1.60
2022-09-01T07:58:38.366Z,1.20
2022-09-01T08:01:43.211Z,1.37
2022-09-01T08:04:46.454Z,1.00
2022-09-01T08:07:52.537Z,1.00
2022-09-01T08:11:04.234Z,1.00
2022-09-01T08:14:07.305Z,1.23
2022-09-01T08:17:33.038Z,1.02
2022-09-01T08:20:37.742Z,1.00
2022-09-01T08:23:44.350Z,1.20
2022-09-01T08:26:48.805Z,1.12
2022-09-01T08:29:52.189Z,1.05
2022-09-01T08:32:54.920Z,0.80
2022-09-01T08:35:57.985Z,1.00
2022-09-01T08:39:01.360Z,0.70
2022-09-01T08:42:31.811Z,1.02
2022-09-01T08:45:43.557Z,1.00
2022-09-01T08:49:24.243Z,0.90
2022-09-01T08:52:43.877Z,0.95
2022-09-01T08:55:50.378Z,0.90
2022-09-01T08:58:54.190Z,0.93
2022-09-01T09:02:13.492Z,0.90
2022-09-01T09:05:25.123Z,1.00
2022-09-01T09:08:59.424Z,0.90
2022-09-01T09:12:12.333Z,1.00
2022-09-01T09:15:37.369Z,1.70
2022-09-01T09:18:55.808Z,2.22
2022-09-01T09:22:02.484Z,1.10
2022-09-01T09:25:12.747Z,0.70
2022-09-01T09:28:15.587Z,0.77
2022-09-01T09:31:27.086Z,0.90
2022-09-01T09:34:34.731Z,0.95
2022-09-01T09:37:37.266Z,0.60
2022-09-01T09:41:14.378Z,0.77
2022-09-01T09:44:28.483Z,0.60
2022-09-01T09:47:44.191Z,0.70
2022-09-01T09:50:47.435Z,0.60
2022-09-01T09:53:51.332Z,0.52
2022-09-01T09:57:08.212Z,0.50
2022-09-01T10:00:22.229Z,0.87
2022-09-01T10:03:50.307Z,0.50
2022-09-01T10:06:54.364Z,0.90
2022-09-01T10:10:00.707Z,1.25
2022-09-01T10:13:04.000Z,0.60
2022-09-01T10:16:11.139Z,0.53
2022-09-01T10:19:16.316Z,0.50
2022-09-01T10:22:20.519Z,0.57
2022-09-01T10:25:29.487Z,0.60
2022-09-01T10:28:32.858Z,0.40
2022-09-01T10:31:36.305Z,0.50
2022-09-01T10:34:42.042Z,0.40
2022-09-01T10:37:45.148Z,0.40
2022-09-01T10:41:07.863Z,0.50
2022-09-01T10:44:22.900Z,0.40
2022-09-01T10:47:30.052Z,0.30
2022-09-01T10:50:36.042Z,0.40
2022-09-01T10:53:49.012Z,0.43
2022-09-01T10:56:54.028Z,0.57
2022-09-01T11:00:35.371Z,0.40
2022-09-01T11:04:00.817Z,0.40
2022-09-01T11:07:13.890Z,0.50
2022-09-01T11:10:35.343Z,0.50
2022-09-01T11:13:52.372Z,0.30
2022-09-01T11:17:26.339Z,0.43
2022-09-01T11:20:34.011Z,0.30
2022-09-01T11:23:37.555Z,0.70
2022-09-01T11:26:49.688Z,0.40
2022-09-01T11:29:55.681Z,0.45
2022-09-01T11:33:08.383Z,0.40
2022-09-01T11:36:36.761Z,0.50
2022-09-01T11:39:51.946Z,0.47
2022-09-01T11:42:56.963Z,0.47
2022-09-01T11:46:16.990Z,0.30
2022-09-01T11:49:40.924Z,0.40
2022-09-01T11:53:00.161Z,0.50
2022-09-01T11:56:14.785Z,0.30
2022-09-01T11:59:35.870Z,0.60
2022-09-01T12:02:51.315Z,0.50
2022-09-01T12:05:59.487Z,0.43
2022-09-01T12:09:05.424Z,0.40
2022-09-01T12:12:30.170Z,0.90
2022-09-01T12:15:36.509Z,0.40
2022-09-01T12:18:48.216Z,0.37
2022-09-01T12:22:00.882Z,0.50
2022-09-01T12:25:04.563Z,0.40
2022-09-01T12:28:07.229Z,0.52
2022-09-01T12:31:16.969Z,0.60
2022-09-01T12:34:46.711Z,0.40
2022-09-01T12:37:50.551Z,0.40
2022-09-01T12:40:55.552Z,0.50
2022-09-01T12:44:37.161Z,0.45
2022-09-01T12:47:44.633Z,0.40
2022-09-01T12:50:48.122Z,0.40
2022-09-01T12:53:58.510Z,0.60
2022-09-01T12:57:01.688Z,0.43
2022-09-01T13:00:16.203Z,0.50
2022-09-01T13:03:20.137Z,0.52
2022-09-01T13:06:22.703Z,0.40
2022-09-01T13:09:25.659Z,0.40
2022-09-01T13:12:28.259Z,0.40
2022-09-01T13:15:31.336Z,0.40
2022-09-01T13:19:10.580Z,0.43
2022-09-01T13:21:56.754Z,0.50
2022-09-01T13:25:00.333Z,0.43
2022-09-01T13:28:03.860Z,0.63
2022-09-01T13:34:29.753Z,0.30
2022-09-01T13:37:32.821Z,0.30
2022-09-01T13:40:35.861Z,0.40
2022-09-01T13:43:38.722Z,0.60
2022-09-01T13:46:59.624Z,0.35
2022-09-01T13:50:08.556Z,0.37
2022-09-01T13:53:13.099Z,0.60
2022-09-01T13:56:15.644Z,0.50
2022-09-01T13:59:18.514Z,0.60
2022-09-01T14:02:21.636Z,0.30
2022-09-01T14:05:28.140Z,0.40
2022-09-01T14:08:30.988Z,0.30
2022-09-01T14:11:33.896Z,0.40
2022-09-01T14:18:00.481Z,0.30
2022-09-01T14:21:03.112Z,0.57
2022-09-01T14:27:13.580Z,0.47
2022-09-01T14:30:24.142Z,0.50
2022-09-01T14:33:28.286Z,0.50
2022-09-01T14:36:31.412Z,0.65
2022-09-01T14:39:34.101Z,0.40
2022-09-01T14:42:37.316Z,0.40
2022-09-01T14:45:42.957Z,0.40
2022-09-01T14:48:47.829Z,0.50
2022-09-01T14:55:13.831Z,0.40
2022-09-01T14:58:17.457Z,0.40
2022-09-01T15:01:33.599Z,0.60
2022-09-01T15:04:37.462Z,0.37
2022-09-01T15:07:41.368Z,0.35
2022-09-01T15:10:44.322Z,0.68
2022-09-01T15:13:47.485Z,0.40
2022-09-01T15:16:51.158Z,0.30
2022-09-01T15:19:54.223Z,0.30
2022-09-01T15:22:56.819Z,0.47
2022-09-01T15:25:59.777Z,0.30
2022-09-01T15:29:02.395Z,0.30
2022-09-01T15:32:05.612Z,0.50
2022-09-01T15:35:09.310Z,0.40
2022-09-01T15:38:17.603Z,0.60
2022-09-01T15:41:24.011Z,0.50
2022-09-01T15:44:26.825Z,0.37
2022-09-01T15:47:30.536Z,0.40
2022-09-01T15:50:33.614Z,0.40
2022-09-01T15:53:36.156Z,0.32
2022-09-01T15:56:40.164Z,0.37
2022-09-01T15:59:43.246Z,0.47
2022-09-01T16:02:47.755Z,0.50
2022-09-01T16:05:50.677Z,1.20
2022-09-01T16:08:54.480Z,0.70
2022-09-01T16:11:57.595Z,0.30
2022-09-01T16:15:00.149Z,0.40
2022-09-01T16:18:19.911Z,0.40
2022-09-01T16:21:53.364Z,0.30
2022-09-01T16:25:00.842Z,0.40
2022-09-01T16:28:13.304Z,0.40
2022-09-01T16:31:21.207Z,0.50
2022-09-01T16:34:27.756Z,0.40
2022-09-01T16:37:34.169Z,0.20
2022-09-01T16:40:46.424Z,0.50
2022-09-01T16:44:02.588Z,0.30
2022-09-01T16:47:42.489Z,0.40
2022-09-01T16:50:54.480Z,0.30
2022-09-01T16:54:20.736Z,0.30
2022-09-01T16:57:46.562Z,0.47
2022-09-01T17:01:14.218Z,0.28
2022-09-01T17:04:21.637Z,0.40
2022-09-01T17:07:53.776Z,0.60
2022-09-01T17:11:11.056Z,0.70
2022-09-01T17:14:22.091Z,0.30
2022-09-01T17:17:42.573Z,0.50
2022-09-01T17:20:55.573Z,0.40
2022-09-01T17:24:20.013Z,0.50
2022-09-01T17:27:28.406Z,0.50
2022-09-01T17:30:35.500Z,0.40
2022-09-01T17:33:56.165Z,0.30
2022-09-01T17:37:18.391Z,0.40
2022-09-01T17:41:05.155Z,0.50
2022-09-01T17:44:30.852Z,0.30
2022-09-01T17:47:46.923Z,0.60
2022-09-01T17:51:09.559Z,0.30
2022-09-01T17:54:37.121Z,0.35
2022-09-01T17:57:45.718Z,0.30
2022-09-01T18:01:02.346Z,0.40
2022-09-01T18:04:45.040Z,0.30
2022-09-01T18:07:57.254Z,0.50
2022-09-01T18:11:30.896Z,0.40
2022-09-01T18:14:56.154Z,0.40
2022-09-01T18:18:35.863Z,0.25
2022-09-01T18:21:48.822Z,0.40
2022-09-01T18:24:56.579Z,0.32
2022-09-01T18:27:59.210Z,0.40
2022-09-01T18:31:18.187Z,0.30
2022-09-01T18:34:23.634Z,0.55
2022-09-01T18:37:35.370Z,0.40
2022-09-01T18:41:14.414Z,0.60
2022-09-01T18:44:17.377Z,0.60
2022-09-01T18:47:31.186Z,0.50
2022-09-01T18:50:52.553Z,0.60
2022-09-01T18:54:36.942Z,0.30
2022-09-01T18:57:41.631Z,0.47
2022-09-01T19:00:56.750Z,0.52
2022-09-01T19:04:25.175Z,0.40
2022-09-01T19:08:01.946Z,1.02
2022-09-01T19:11:10.844Z,0.50
2022-09-01T19:14:16.098Z,0.32
2022-09-01T19:17:47.056Z,0.52
2022-09-01T19:20:59.119Z,0.70
2022-09-01T19:24:04.611Z,0.60
2022-09-01T19:27:16.593Z,0.50
2022-09-01T19:30:19.901Z,0.80
2022-09-01T19:33:27.949Z,0.50
2022-09-01T19:36:45.828Z,0.50
2022-09-01T19:39:53.965Z,0.50
2022-09-01T19:43:06.419Z,0.70
2022-09-01T19:46:24.370Z,0.60
2022-09-01T19:49:59.272Z,0.50
2022-09-01T19:53:26.053Z,0.60
2022-09-01T19:56:39.904Z,0.40
2022-09-01T19:59:56.709Z,0.95
2022-09-01T20:03:13.114Z,0.40
2022-09-01T20:06:37.937Z,0.60
2022-09-01T20:09:51.412Z,0.60
2022-09-01T20:13:14.732Z,0.55
2022-09-01T20:16:27.308Z,0.50
2022-09-01T20:19:45.182Z,0.98
2022-09-01T20:23:00.563Z,0.60
2022-09-01T20:26:36.009Z,0.90
2022-09-01T20:29:58.205Z,0.60
2022-09-01T20:33:16.097Z,0.40
2022-09-01T20:36:21.633Z,0.60
2022-09-01T20:40:01.473Z,0.62
2022-09-01T20:43:12.891Z,0.80
2022-09-01T20:46:20.600Z,0.50
2022-09-01T20:49:23.221Z,0.50
2022-09-01T20:52:47.507Z,0.73
2022-09-01T20:55:55.927Z,0.95
2022-09-01T20:59:23.458Z,0.67
2022-09-01T21:02:38.411Z,1.02
2022-09-01T21:06:01.206Z,0.40
2022-09-01T21:09:19.701Z,0.50
2022-09-01T21:12:39.241Z,0.40
2022-09-01T21:15:51.558Z,0.50
2022-09-01T21:19:25.686Z,0.50
2022-09-01T21:22:29.350Z,0.95
2022-09-01T21:25:32.187Z,0.57
2022-09-01T21:28:34.831Z,0.40
2022-09-01T21:31:37.798Z,0.40
2022-09-01T21:34:40.323Z,0.30
2022-09-01T21:37:43.255Z,0.50
2022-09-01T21:40:46.883Z,1.02
2022-09-01T21:43:49.784Z,0.30
2022-09-01T21:46:52.483Z,0.70
2022-09-01T21:49:55.976Z,0.50
2022-09-01T21:52:58.572Z,0.50
2022-09-01T21:56:01.607Z,0.40
2022-09-01T21:59:04.510Z,0.77
2022-09-01T22:02:07.799Z,0.50
2022-09-01T22:05:14.617Z,0.40
2022-09-01T22:08:17.420Z,0.50
2022-09-01T22:11:23.914Z,0.30
2022-09-01T22:14:27.911Z,0.30
2022-09-01T22:17:31.599Z,0.40
2022-09-01T22:20:34.161Z,0.37
2022-09-01T22:23:37.922Z,0.37
2022-09-01T22:26:41.906Z,0.43
2022-09-01T22:29:45.918Z,0.50
2022-09-01T22:32:48.485Z,0.47
2022-09-01T22:35:53.977Z,0.65
2022-09-01T22:38:58.901Z,0.40
2022-09-01T22:42:02.396Z,0.45
2022-09-01T22:45:06.981Z,0.43
2022-09-01T22:48:10.069Z,0.40
2022-09-01T22:51:13.699Z,0.50
2022-09-01T22:54:17.108Z,0.40
2022-09-01T22:57:20.285Z,0.40
2022-09-01T23:00:23.298Z,0.30
2022-09-01T23:03:26.141Z,0.40
2022-09-01T23:06:30.628Z,0.37
2022-09-01T23:09:33.541Z,0.50
2022-09-01T23:12:36.448Z,0.28
2022-09-01T23:15:39.036Z,0.40
2022-09-01T23:18:43.960Z,0.30
2022-09-01T23:21:48.289Z,1.02
2022-09-01T23:24:51.196Z,0.30
2022-09-01T23:27:54.597Z,0.45
2022-09-01T23:30:57.550Z,0.50
2022-09-01T23:34:00.386Z,0.40
2022-09-01T23:37:03.377Z,0.35
2022-09-01T23:47:12.804Z,0.30
2022-09-01T23:50:30.825Z,0.40
2022-09-01T23:53:45.181Z,0.52
2022-09-01T23:56:58.644Z,0.30
